createdAt,value
2023-03-27T00:01:37.179Z,15.20
2023-03-27T00:04:06.678Z,16.10
2023-03-27T00:06:38.620Z,15.50
2023-03-27T00:09:09.192Z,14.20
2023-03-27T00:11:37.436Z,13.10
2023-03-27T00:14:13.905Z,13.30
2023-03-27T00:16:42.137Z,11.30
2023-03-27T00:19:14.750Z,12.80
2023-03-27T00:21:46.654Z,15.00
2023-03-27T00:24:16.068Z,13.90
2023-03-27T00:26:46.322Z,16.60
2023-03-27T00:29:16.148Z,13.90
2023-03-27T00:31:46.313Z,14.90
2023-03-27T00:34:15.023Z,15.60
2023-03-27T00:36:43.864Z,15.00
2023-03-27T00:39:12.631Z,12.10
2023-03-27T00:41:41.122Z,15.20
2023-03-27T00:44:34.359Z,12.90
2023-03-27T00:47:04.473Z,14.60
2023-03-27T00:49:34.988Z,14.30
2023-03-27T00:52:03.659Z,16.90
2023-03-27T00:54:41.034Z,13.40
2023-03-27T00:57:14.097Z,15.40
2023-03-27T00:59:46.205Z,16.90
2023-03-27T01:02:15.843Z,15.50
2023-03-27T01:04:46.674Z,13.30
2023-03-27T01:07:15.670Z,14.90
2023-03-27T01:09:48.432Z,19.80
2023-03-27T01:12:39.307Z,14.80
2023-03-27T01:15:25.015Z,18.20
2023-03-27T01:18:24.064Z,17.40
2023-03-27T01:21:05.808Z,14.30
2023-03-27T01:24:00.020Z,19.20
2023-03-27T01:26:40.730Z,15.40
2023-03-27T01:29:22.524Z,19.00
2023-03-27T01:32:16.106Z,16.20
2023-03-27T01:35:03.261Z,13.90
2023-03-27T01:37:47.936Z,11.60
2023-03-27T01:40:27.071Z,13.60
2023-03-27T01:43:02.625Z,13.70
2023-03-27T01:46:02.709Z,14.20
2023-03-27T01:48:43.835Z,9.50
2023-03-27T01:51:16.902Z,9.70
2023-03-27T01:56:26.468Z,11.60
2023-03-27T01:58:57.647Z,11.10
2023-03-27T02:01:29.954Z,10.30
2023-03-27T02:04:00.133Z,11.70
2023-03-27T02:06:34.364Z,11.00
2023-03-27T02:09:22.084Z,9.30
2023-03-27T02:11:54.985Z,12.40
2023-03-27T02:14:25.339Z,12.10
2023-03-27T02:16:55.686Z,10.70
2023-03-27T02:19:30.173Z,13.10
2023-03-27T02:21:59.637Z,11.90
2023-03-27T02:24:28.035Z,13.60
2023-03-27T02:26:59.954Z,10.10
2023-03-27T02:29:37.874Z,13.30
2023-03-27T02:32:21.928Z,12.80
2023-03-27T02:37:36.801Z,17.60
2023-03-27T02:40:33.322Z,16.70
2023-03-27T02:43:45.765Z,15.50
2023-03-27T02:46:29.600Z,13.50
2023-03-27T02:49:11.026Z,14.00
2023-03-27T02:51:41.914Z,15.50
2023-03-27T02:54:32.544Z,14.10
2023-03-27T02:57:06.996Z,15.30
2023-03-27T02:59:57.878Z,18.60
2023-03-27T03:02:29.827Z,17.40
2023-03-27T03:05:08.005Z,19.40
2023-03-27T03:07:42.240Z,21.70
2023-03-27T03:10:14.075Z,15.70
2023-03-27T03:15:12.865Z,14.20
2023-03-27T03:17:41.438Z,13.00
2023-03-27T03:20:13.183Z,14.80
2023-03-27T03:22:44.344Z,15.50
2023-03-27T03:25:16.744Z,14.60
2023-03-27T03:27:48.755Z,12.80
2023-03-27T03:30:18.505Z,17.30
2023-03-27T03:33:00.715Z,16.00
2023-03-27T03:35:35.040Z,19.90
2023-03-27T03:38:06.595Z,14.50
2023-03-27T03:40:46.061Z,16.70
2023-03-27T03:43:15.820Z,23.90
2023-03-27T03:45:46.864Z,17.20
2023-03-27T03:48:15.109Z,14.80
2023-03-27T03:50:44.433Z,19.50
2023-03-27T03:53:15.524Z,22.00
2023-03-27T03:55:46.705Z,17.10
2023-03-27T03:58:15.858Z,18.50
2023-03-27T04:00:47.420Z,17.20
2023-03-27T04:03:37.173Z,16.60
2023-03-27T04:06:10.969Z,13.50
2023-03-27T04:08:42.188Z,18.00
2023-03-27T04:11:37.473Z,20.70
2023-03-27T04:14:14.332Z,15.00
2023-03-27T04:16:46.870Z,17.60
2023-03-27T04:19:31.311Z,18.00
2023-03-27T04:22:05.296Z,28.50
2023-03-27T04:24:44.953Z,17.80
2023-03-27T04:27:17.881Z,19.60
2023-03-27T04:30:15.918Z,23.00
2023-03-27T04:33:10.246Z,20.40
2023-03-27T04:36:05.954Z,20.30
2023-03-27T04:39:04.303Z,25.40
2023-03-27T04:41:49.043Z,19.10
2023-03-27T04:44:21.997Z,17.50
2023-03-27T04:46:52.408Z,21.30
2023-03-27T04:49:21.979Z,12.60
2023-03-27T04:52:07.137Z,11.10
2023-03-27T04:54:39.165Z,14.00
2023-03-27T04:57:14.257Z,14.60
2023-03-27T04:59:50.972Z,38.80
2023-03-27T05:02:38.194Z,43.00
2023-03-27T05:05:36.373Z,57.60
2023-03-27T05:09:36.517Z,31.80
2023-03-27T05:12:07.954Z,17.80
2023-03-27T05:14:45.903Z,16.80
2023-03-27T05:17:26.253Z,17.60
2023-03-27T05:19:57.181Z,15.60
2023-03-27T05:22:26.404Z,15.80
2023-03-27T05:25:04.491Z,11.80
2023-03-27T05:27:33.793Z,17.80
2023-03-27T05:30:02.781Z,13.60
2023-03-27T05:32:31.756Z,17.90
2023-03-27T05:35:11.739Z,14.50
2023-03-27T05:37:48.720Z,16.40
2023-03-27T05:40:26.869Z,14.20
2023-03-27T05:42:57.112Z,15.40
2023-03-27T05:45:31.696Z,16.20
2023-03-27T05:48:01.877Z,12.60
2023-03-27T05:50:34.748Z,15.70
2023-03-27T05:53:10.282Z,23.90
2023-03-27T05:55:44.814Z,22.20
2023-03-27T05:58:19.948Z,21.10
2023-03-27T06:00:50.593Z,20.90
2023-03-27T06:03:21.664Z,19.50
2023-03-27T06:06:11.494Z,21.80
2023-03-27T06:08:42.344Z,20.10
2023-03-27T06:11:11.518Z,20.30
2023-03-27T06:13:46.488Z,18.30
2023-03-27T06:16:21.036Z,20.00
2023-03-27T06:19:09.538Z,16.00
2023-03-27T06:21:47.130Z,16.50
2023-03-27T06:24:17.011Z,24.50
2023-03-27T06:26:50.741Z,17.50
2023-03-27T06:29:20.257Z,13.90
2023-03-27T06:31:49.698Z,19.00
2023-03-27T06:34:26.991Z,19.30
2023-03-27T06:37:02.917Z,17.40
2023-03-27T06:39:37.786Z,13.70
2023-03-27T06:42:05.917Z,14.40
2023-03-27T06:44:36.683Z,20.50
2023-03-27T06:47:11.317Z,19.60
2023-03-27T06:50:00.218Z,23.00
2023-03-27T06:52:30.262Z,22.90
2023-03-27T06:55:15.044Z,22.40
2023-03-27T06:57:54.188Z,17.90
2023-03-27T07:00:31.337Z,14.60
2023-03-27T07:03:45.597Z,14.50
2023-03-27T07:10:50.612Z,19.50
2023-03-27T07:13:26.284Z,21.60
2023-03-27T07:15:55.209Z,18.60
2023-03-27T07:18:23.841Z,23.30
2023-03-27T07:23:33.061Z,24.40
2023-03-27T07:26:33.718Z,22.20
2023-03-27T07:29:16.441Z,18.10
2023-03-27T07:34:29.781Z,23.30
2023-03-27T07:37:22.973Z,27.50
2023-03-27T07:40:17.294Z,18.80
2023-03-27T07:42:53.869Z,17.50
2023-03-27T07:45:24.197Z,20.20
2023-03-27T07:48:07.310Z,17.60
2023-03-27T07:50:43.284Z,19.00
2023-03-27T07:53:32.806Z,22.10
2023-03-27T07:56:05.593Z,15.60
2023-03-27T07:58:42.855Z,17.30
2023-03-27T08:01:11.840Z,12.70
2023-03-27T08:03:42.062Z,12.50
2023-03-27T08:06:14.355Z,17.70
2023-03-27T08:08:51.020Z,12.30
2023-03-27T08:11:30.406Z,10.50
2023-03-27T08:13:59.879Z,10.80
2023-03-27T08:16:30.961Z,14.60
2023-03-27T08:19:03.407Z,13.30
2023-03-27T08:21:33.570Z,11.30
2023-03-27T08:24:04.935Z,12.40
2023-03-27T08:26:38.318Z,10.90
2023-03-27T08:29:29.143Z,11.00
2023-03-27T08:32:01.412Z,9.10
2023-03-27T08:34:32.016Z,13.10
2023-03-27T08:37:03.240Z,12.60
2023-03-27T08:39:44.602Z,15.80
2023-03-27T08:42:22.160Z,15.90
2023-03-27T09:20:18.506Z,15.10
2023-03-27T09:22:53.309Z,18.70
2023-03-27T09:25:46.836Z,13.60
2023-03-27T09:28:30.380Z,14.20
2023-03-27T09:31:48.135Z,14.10
2023-03-27T09:34:34.370Z,17.10
2023-03-27T09:37:22.870Z,13.00
2023-03-27T09:40:44.907Z,18.40
2023-03-27T09:43:57.709Z,17.30
2023-03-27T09:46:26.714Z,10.10
2023-03-27T09:49:10.132Z,10.70
2023-03-27T09:51:44.039Z,11.30
2023-03-27T09:54:29.116Z,10.90
2023-03-27T09:57:04.679Z,15.30
2023-03-27T09:59:38.359Z,10.70
2023-03-27T10:02:24.454Z,13.40
2023-03-27T10:05:14.675Z,9.70
2023-03-27T10:07:43.591Z,11.60
2023-03-27T10:10:20.286Z,9.60
2023-03-27T10:13:29.374Z,10.10
2023-03-27T10:16:04.707Z,11.00
2023-03-27T10:18:46.433Z,12.60
2023-03-27T10:21:26.889Z,14.40
2023-03-27T10:24:06.737Z,12.00
2023-03-27T10:32:51.750Z,11.30
2023-03-27T10:35:47.949Z,11.40
2023-03-27T10:38:25.350Z,11.40
2023-03-27T10:41:28.748Z,19.80
2023-03-27T10:43:59.005Z,16.10
2023-03-27T10:46:29.432Z,15.20
2023-03-27T10:49:14.152Z,11.40
2023-03-27T10:52:02.896Z,15.30
2023-03-27T10:55:14.608Z,15.50
2023-03-27T10:57:54.665Z,13.50
2023-03-27T11:00:49.401Z,15.90
2023-03-27T11:03:48.181Z,13.40
2023-03-27T11:06:20.766Z,13.40
2023-03-27T11:09:09.372Z,13.40
2023-03-27T11:11:53.502Z,12.80
2023-03-27T11:15:01.802Z,18.80
2023-03-27T11:17:48.571Z,15.80
2023-03-27T11:20:38.059Z,15.10
2023-03-27T11:23:49.159Z,14.60
2023-03-27T11:26:36.980Z,14.30
2023-03-27T11:29:21.561Z,22.20
2023-03-27T11:31:53.639Z,20.20
2023-03-27T11:34:49.400Z,20.10
2023-03-27T11:37:54.172Z,12.80
2023-03-27T11:40:28.756Z,18.60
2023-03-27T11:43:02.655Z,16.40
2023-03-27T11:46:21.108Z,20.70
2023-03-27T11:49:10.930Z,15.60
2023-03-27T11:52:12.705Z,15.10
2023-03-27T11:54:48.700Z,14.00
2023-03-27T11:57:24.321Z,14.60
2023-03-27T12:00:07.033Z,14.40
2023-03-27T12:02:55.176Z,18.80
2023-03-27T12:05:47.187Z,20.50
2023-03-27T12:08:56.682Z,15.80
2023-03-27T12:11:25.717Z,22.80
2023-03-27T12:14:05.402Z,14.90
2023-03-27T12:16:54.736Z,13.20
2023-03-27T12:19:51.429Z,14.10
2023-03-27T12:22:51.887Z,13.80
2023-03-27T12:26:09.607Z,11.10
2023-03-27T12:29:23.630Z,11.90
2023-03-27T12:32:43.740Z,14.50
2023-03-27T12:35:21.326Z,13.90
2023-03-27T12:38:03.365Z,13.00
2023-03-27T12:40:35.085Z,17.90
2023-03-27T12:43:27.980Z,10.70
2023-03-27T12:46:25.393Z,14.20
2023-03-27T12:48:54.111Z,11.70
2023-03-27T12:51:42.409Z,15.70
2023-03-27T12:54:25.197Z,13.00
2023-03-27T12:57:15.533Z,14.00
2023-03-27T12:59:46.985Z,17.90
2023-03-27T13:02:16.083Z,15.80
2023-03-27T13:04:48.880Z,16.20
2023-03-27T13:07:24.591Z,12.80
2023-03-27T13:10:54.903Z,14.90
2023-03-27T13:13:37.994Z,19.80
2023-03-27T13:16:31.287Z,13.30
2023-03-27T13:19:13.215Z,19.40
2023-03-27T13:22:18.936Z,14.80
2023-03-27T13:24:59.002Z,11.30
2023-03-27T13:28:08.704Z,11.60
2023-03-27T13:30:47.208Z,15.60
2023-03-27T13:33:39.753Z,18.10
2023-03-27T13:36:18.072Z,14.30
2023-03-27T13:38:56.821Z,12.30
2023-03-27T13:41:44.777Z,12.80
2023-03-27T13:44:57.118Z,11.00
2023-03-27T13:47:34.533Z,12.60
2023-03-27T13:50:33.695Z,12.50
2023-03-27T13:53:05.369Z,11.90
2023-03-27T13:56:31.771Z,12.90
2023-03-27T13:59:31.701Z,10.20
2023-03-27T14:02:12.939Z,17.00
2023-03-27T14:05:13.717Z,12.60
2023-03-27T14:08:01.152Z,13.00
2023-03-27T14:11:15.170Z,14.10
2023-03-27T14:14:14.063Z,16.00
2023-03-27T14:16:59.660Z,11.00
2023-03-27T14:19:51.346Z,12.30
2023-03-27T14:22:29.473Z,9.60
2023-03-27T14:25:00.572Z,12.40
2023-03-27T14:27:40.791Z,15.40
2023-03-27T14:30:12.328Z,17.20
2023-03-27T14:32:45.280Z,12.30
2023-03-27T14:35:31.095Z,13.60
2023-03-27T14:38:25.072Z,17.20
2023-03-27T14:41:27.000Z,13.10
2023-03-27T14:44:03.505Z,11.20
2023-03-27T14:46:36.243Z,13.40
2023-03-27T14:49:11.179Z,15.80
2023-03-27T14:51:47.669Z,11.40
2023-03-27T14:54:29.613Z,9.90
2023-03-27T14:57:05.738Z,13.00
2023-03-27T14:59:39.751Z,10.00
2023-03-27T15:02:22.818Z,12.50
2023-03-27T15:04:56.779Z,16.10
2023-03-27T15:07:28.850Z,13.50
2023-03-27T15:10:28.291Z,17.50
2023-03-27T15:13:02.629Z,13.60
2023-03-27T15:15:44.634Z,16.30
2023-03-27T15:18:28.415Z,13.10
2023-03-27T15:21:04.252Z,17.30
2023-03-27T15:23:40.185Z,15.40
2023-03-27T15:26:18.690Z,19.00
2023-03-27T15:29:08.571Z,41.90
2023-03-27T15:31:39.663Z,72.90
2023-03-27T15:34:14.205Z,92.80
2023-03-27T15:36:46.738Z,67.20
2023-03-27T15:39:22.319Z,35.70
2023-03-27T15:41:52.003Z,27.40
2023-03-27T15:44:21.442Z,22.00
2023-03-27T15:46:58.096Z,18.90
2023-03-27T15:49:30.982Z,17.20
2023-03-27T15:52:01.951Z,19.80
2023-03-27T15:54:32.631Z,19.20
2023-03-27T15:57:11.619Z,17.10
2023-03-27T15:59:52.689Z,15.40
2023-03-27T16:02:25.635Z,15.90
2023-03-27T16:05:00.787Z,19.70
2023-03-27T16:07:48.594Z,14.90
2023-03-27T16:10:39.593Z,20.40
2023-03-27T16:13:42.481Z,18.30
2023-03-27T16:16:30.337Z,23.20
2023-03-27T16:19:19.784Z,25.30
2023-03-27T16:21:55.190Z,23.40
2023-03-27T16:24:23.490Z,21.80
2023-03-27T16:26:55.044Z,16.70
2023-03-27T16:29:24.868Z,16.20
2023-03-27T16:31:53.584Z,18.70
2023-03-27T16:34:26.688Z,16.20
2023-03-27T16:36:54.897Z,15.20
2023-03-27T16:39:25.715Z,15.20
2023-03-27T16:41:54.064Z,17.80
2023-03-27T16:44:32.123Z,15.50
2023-03-27T16:47:07.269Z,18.70
2023-03-27T16:49:35.975Z,17.00
2023-03-27T16:52:07.848Z,13.40
2023-03-27T16:54:36.664Z,18.50
2023-03-27T16:57:07.119Z,16.70
2023-03-27T16:59:36.682Z,16.40
2023-03-27T17:02:04.835Z,19.60
2023-03-27T17:04:33.811Z,15.80
2023-03-27T17:07:03.616Z,16.60
2023-03-27T17:09:33.148Z,14.90
2023-03-27T17:12:10.063Z,15.60
2023-03-27T17:14:38.469Z,15.40
2023-03-27T17:17:14.833Z,15.50
2023-03-27T17:19:43.115Z,15.50
2023-03-27T17:22:14.316Z,16.70
2023-03-27T17:24:55.217Z,14.70
2023-03-27T17:27:26.576Z,19.10
2023-03-27T17:29:56.981Z,19.10
2023-03-27T17:32:27.900Z,39.80
2023-03-27T17:35:00.225Z,39.30
2023-03-27T17:37:33.009Z,34.70
2023-03-27T17:40:09.842Z,20.90
2023-03-27T17:42:40.540Z,23.30
2023-03-27T17:45:13.554Z,19.90
2023-03-27T17:47:42.144Z,20.60
2023-03-27T17:50:13.699Z,22.20
2023-03-27T17:52:43.020Z,19.90
2023-03-27T17:55:32.918Z,14.40
2023-03-27T17:58:09.386Z,18.30
2023-03-27T18:00:42.093Z,49.10
2023-03-27T18:03:11.665Z,17.70
2023-03-27T18:05:49.490Z,14.00
2023-03-27T18:08:28.520Z,18.90
2023-03-27T18:11:02.698Z,24.00
2023-03-27T18:13:36.682Z,21.40
2023-03-27T18:18:39.258Z,26.20
2023-03-27T18:21:09.594Z,25.50
2023-03-27T18:23:46.129Z,66.50
2023-03-27T18:26:17.876Z,27.60
2023-03-27T18:28:52.657Z,17.90
2023-03-27T18:31:28.980Z,18.00
2023-03-27T18:33:58.741Z,26.30
2023-03-27T18:36:27.408Z,43.50
2023-03-27T18:38:56.630Z,32.40
2023-03-27T18:41:26.214Z,17.30
2023-03-27T18:43:54.783Z,16.90
2023-03-27T18:46:26.905Z,14.30
2023-03-27T18:48:59.768Z,15.20
2023-03-27T18:51:35.467Z,14.20
2023-03-27T18:54:13.076Z,17.50
2023-03-27T18:56:45.417Z,20.00
2023-03-27T18:59:19.754Z,17.30
2023-03-27T19:01:48.941Z,16.80
2023-03-27T19:04:20.454Z,15.10
2023-03-27T19:06:48.715Z,6.20
2023-03-27T19:09:17.885Z,4.90
2023-03-27T19:11:47.126Z,3.70
2023-03-27T19:14:18.299Z,1.10
2023-03-27T19:17:15.006Z,1.00
2023-03-27T19:20:22.206Z,0.50
2023-03-27T19:23:19.230Z,1.50
2023-03-27T19:25:51.800Z,0.30
2023-03-27T19:28:28.353Z,0.60
2023-03-27T19:31:09.354Z,0.30
2023-03-27T19:33:39.430Z,0.70
2023-03-27T19:36:08.364Z,0.40
2023-03-27T19:38:39.013Z,0.50
2023-03-27T19:41:10.636Z,0.60
2023-03-27T19:43:39.920Z,1.20
2023-03-27T19:46:16.100Z,0.60
2023-03-27T19:48:49.602Z,0.40
2023-03-27T19:51:26.200Z,1.70
2023-03-27T19:54:01.994Z,0.70
2023-03-27T19:56:35.352Z,1.20
2023-03-27T19:59:08.566Z,0.40
2023-03-27T20:01:46.335Z,2.80
2023-03-27T20:04:15.748Z,0.60
2023-03-27T20:06:47.107Z,0.40
2023-03-27T20:09:15.687Z,0.60
2023-03-27T20:11:44.180Z,0.10
2023-03-27T20:14:13.049Z,0.30
2023-03-27T20:16:42.826Z,0.30
2023-03-27T20:19:11.676Z,0.70
2023-03-27T20:21:46.834Z,0.40
2023-03-27T20:24:18.418Z,0.40
2023-03-27T20:26:53.299Z,0.20
2023-03-27T20:29:28.779Z,0.50
2023-03-27T20:31:57.224Z,0.40
2023-03-27T20:34:27.865Z,0.40
2023-03-27T20:36:59.266Z,0.40
2023-03-27T20:39:38.835Z,0.10
2023-03-27T20:54:54.497Z,0.40
2023-03-27T20:57:22.851Z,0.40
2023-03-27T20:59:54.975Z,0.40
2023-03-27T21:02:23.293Z,0.50
2023-03-27T21:04:52.413Z,0.80
2023-03-27T21:07:20.599Z,1.00
2023-03-27T21:12:25.418Z,0.70
2023-03-27T21:14:56.893Z,0.50
2023-03-27T21:17:25.624Z,1.40
2023-03-27T21:19:54.937Z,0.30
2023-03-27T21:22:36.617Z,2.00
2023-03-27T21:27:10.956Z,1.30
2023-03-27T21:29:44.866Z,1.50
2023-03-27T21:32:13.357Z,0.90
2023-03-27T21:34:41.799Z,1.20
2023-03-27T21:37:12.131Z,2.00
2023-03-27T21:39:42.904Z,3.10
2023-03-27T21:42:16.591Z,1.00
2023-03-27T21:44:53.908Z,1.20
2023-03-27T21:47:31.721Z,1.20
2023-03-27T21:50:08.978Z,0.60
2023-03-27T21:52:37.910Z,1.10
2023-03-27T21:55:11.560Z,0.80
2023-03-27T21:57:41.105Z,0.80
2023-03-27T22:00:10.009Z,18.30
2023-03-27T22:05:12.523Z,1.40
2023-03-27T22:07:47.268Z,1.80
2023-03-27T22:10:15.977Z,2.10
2023-03-27T22:12:44.848Z,1.30
2023-03-27T22:15:14.636Z,1.80
2023-03-27T22:17:43.448Z,1.30
2023-03-27T22:20:11.761Z,1.30
2023-03-27T22:22:40.400Z,1.90
2023-03-27T22:25:08.851Z,1.50
2023-03-27T22:27:37.116Z,1.20
2023-03-27T22:30:06.298Z,1.60
2023-03-27T22:32:35.787Z,2.10
2023-03-27T22:35:10.251Z,1.60
2023-03-27T22:37:39.312Z,1.70
2023-03-27T22:40:08.349Z,1.50
2023-03-27T22:42:37.298Z,2.00
2023-03-27T22:45:05.983Z,1.90
2023-03-27T22:47:37.395Z,2.30
2023-03-27T22:50:06.626Z,2.30
2023-03-27T22:52:34.963Z,1.90
2023-03-27T22:55:04.116Z,2.60
2023-03-27T22:57:32.512Z,2.90
2023-03-27T23:00:07.041Z,2.30
2023-03-27T23:02:36.285Z,2.60
2023-03-27T23:05:06.013Z,1.80
2023-03-27T23:07:35.156Z,2.40
2023-03-27T23:10:03.997Z,1.70
2023-03-27T23:12:32.808Z,1.90
2023-03-27T23:15:03.477Z,2.90
2023-03-27T23:17:32.596Z,1.90
2023-03-27T23:20:06.552Z,2.10
2023-03-27T23:22:35.279Z,1.60
2023-03-27T23:25:03.530Z,3.00
2023-03-27T23:27:34.833Z,1.80
2023-03-27T23:30:03.700Z,2.10
2023-03-27T23:32:38.463Z,2.80
2023-03-27T23:35:07.929Z,1.90
2023-03-27T23:37:36.537Z,2.20
2023-03-27T23:40:06.581Z,2.20
2023-03-27T23:42:35.504Z,2.60
2023-03-27T23:45:05.044Z,2.20
2023-03-27T23:47:33.837Z,2.30
2023-03-27T23:50:02.016Z,1.40
2023-03-27T23:52:33.151Z,1.70
2023-03-27T23:55:01.681Z,1.40
2023-03-27T23:57:32.577Z,1.40
